createdAt,value
2018-03-26T00:00:21.338Z,10.22
2018-03-26T00:02:49.686Z,10.22
2018-03-26T00:05:18.030Z,10.18
2018-03-26T00:07:46.381Z,10.21
2018-03-26T00:10:14.710Z,10.20
2018-03-26T00:12:43.064Z,10.22
2018-03-26T00:15:11.394Z,10.25
2018-03-26T00:17:39.746Z,10.25
2018-03-26T00:20:08.077Z,10.20
2018-03-26T00:22:36.429Z,10.21
2018-03-26T00:25:04.764Z,10.20
2018-03-26T00:27:33.127Z,10.16
2018-03-26T00:30:01.454Z,10.16
2018-03-26T00:32:29.807Z,10.14
2018-03-26T00:34:58.147Z,10.07
2018-03-26T00:37:26.502Z,10.00
2018-03-26T00:39:54.830Z,9.92
2018-03-26T00:42:23.173Z,9.87
2018-03-26T00:44:51.498Z,9.91
2018-03-26T00:47:19.846Z,9.85
2018-03-26T00:49:48.171Z,9.80
2018-03-26T00:52:16.518Z,9.75
2018-03-26T00:54:44.830Z,9.77
2018-03-26T00:57:13.186Z,9.83
2018-03-26T00:59:41.510Z,9.76
2018-03-26T01:02:09.861Z,9.77
2018-03-26T01:04:38.187Z,9.87
2018-03-26T01:07:06.531Z,9.92
2018-03-26T01:09:34.850Z,9.88
2018-03-26T01:14:30.574Z,9.83
2018-03-26T01:16:58.913Z,9.81
2018-03-26T01:19:27.243Z,9.80
2018-03-26T01:21:55.590Z,9.81
2018-03-26T01:24:23.918Z,9.81
2018-03-26T01:26:52.267Z,9.88
2018-03-26T01:29:20.598Z,9.83
2018-03-26T01:31:48.922Z,9.83
2018-03-26T01:34:17.260Z,9.86
2018-03-26T01:36:45.587Z,9.91
2018-03-26T01:39:13.926Z,9.93
2018-03-26T01:41:42.242Z,9.88
2018-03-26T01:44:10.591Z,9.91
2018-03-26T01:46:38.913Z,9.90
2018-03-26T01:49:07.258Z,9.95
2018-03-26T01:51:35.586Z,9.94
2018-03-26T01:54:03.932Z,9.91
2018-03-26T01:56:32.463Z,9.91
2018-03-26T01:59:00.622Z,9.91
2018-03-26T02:01:28.927Z,9.85
2018-03-26T02:03:57.271Z,9.83
2018-03-26T02:06:25.594Z,9.80
2018-03-26T02:08:53.933Z,9.84
2018-03-26T02:11:22.253Z,9.88
2018-03-26T02:13:50.609Z,9.92
2018-03-26T02:16:18.931Z,9.94
2018-03-26T02:18:47.270Z,9.91
2018-03-26T02:21:15.607Z,9.89
2018-03-26T02:23:43.946Z,9.86
2018-03-26T02:26:12.274Z,9.87
2018-03-26T02:28:40.623Z,9.90
2018-03-26T02:31:09.271Z,9.89
2018-03-26T02:33:37.598Z,9.87
2018-03-26T02:36:05.928Z,9.81
2018-03-26T02:38:34.271Z,9.77
2018-03-26T02:41:02.588Z,9.78
2018-03-26T02:43:30.931Z,9.79
2018-03-26T02:45:59.255Z,9.79
2018-03-26T02:48:27.599Z,9.78
2018-03-26T02:50:55.919Z,9.79
2018-03-26T02:53:24.258Z,9.74
2018-03-26T02:55:52.586Z,9.68
2018-03-26T02:58:20.922Z,9.58
2018-03-26T03:00:49.247Z,9.58
2018-03-26T03:03:20.513Z,9.60
2018-03-26T03:05:48.831Z,9.63
2018-03-26T03:08:17.176Z,9.54
2018-03-26T03:10:45.501Z,9.55
2018-03-26T03:13:13.842Z,9.59
2018-03-26T03:15:42.164Z,9.63
2018-03-26T03:18:10.513Z,9.60
2018-03-26T03:20:38.841Z,9.63
2018-03-26T03:23:07.178Z,9.66
2018-03-26T03:25:35.494Z,9.62
2018-03-26T03:28:03.843Z,9.62
2018-03-26T03:30:32.167Z,9.66
2018-03-26T03:33:00.528Z,9.70
2018-03-26T03:35:28.849Z,9.71
2018-03-26T03:37:57.173Z,9.69
2018-03-26T03:40:25.514Z,9.71
2018-03-26T03:42:53.844Z,9.71
2018-03-26T03:45:22.202Z,9.74
2018-03-26T03:47:50.522Z,9.77
2018-03-26T03:50:18.862Z,9.77
2018-03-26T03:52:47.190Z,9.76
2018-03-26T03:55:15.526Z,9.75
2018-03-26T03:57:43.846Z,9.54
2018-03-26T04:00:12.209Z,9.46
2018-03-26T04:02:40.513Z,9.50
2018-03-26T04:05:08.861Z,9.55
2018-03-26T04:07:37.183Z,9.43
2018-03-26T04:10:05.522Z,9.45
2018-03-26T04:12:33.834Z,9.43
2018-03-26T04:15:02.183Z,9.44
2018-03-26T04:17:30.506Z,9.49
2018-03-26T04:19:58.854Z,9.52
2018-03-26T04:22:27.173Z,9.54
2018-03-26T04:24:55.513Z,9.52
2018-03-26T04:27:23.835Z,9.45
2018-03-26T04:29:52.178Z,9.51
2018-03-26T04:32:20.498Z,9.45
2018-03-26T04:34:48.842Z,9.45
2018-03-26T04:37:17.249Z,9.44
2018-03-26T04:39:45.582Z,9.42
2018-03-26T04:42:13.908Z,9.39
2018-03-26T04:44:42.257Z,9.36
2018-03-26T04:47:10.586Z,9.35
2018-03-26T04:49:38.930Z,9.30
2018-03-26T04:52:07.258Z,9.30
2018-03-26T04:54:35.606Z,9.29
2018-03-26T04:57:03.938Z,9.32
2018-03-26T04:59:32.873Z,9.33
2018-03-26T05:02:01.201Z,9.30
2018-03-26T05:04:29.550Z,9.31
2018-03-26T05:06:58.826Z,9.28
2018-03-26T05:09:27.182Z,9.21
2018-03-26T05:11:55.505Z,9.13
2018-03-26T05:14:23.927Z,9.04
2018-03-26T05:16:52.190Z,9.04
2018-03-26T05:19:20.543Z,9.07
2018-03-26T05:21:48.877Z,9.11
2018-03-26T05:24:17.231Z,9.13
2018-03-26T05:26:45.554Z,9.14
2018-03-26T05:29:13.918Z,9.15
2018-03-26T05:31:42.247Z,9.14
2018-03-26T05:34:10.599Z,9.13
2018-03-26T05:36:38.931Z,9.19
2018-03-26T05:39:07.253Z,9.19
2018-03-26T05:41:35.602Z,9.21
2018-03-26T05:44:03.932Z,9.23
2018-03-26T05:46:32.292Z,9.24
2018-03-26T05:49:00.619Z,9.26
2018-03-26T05:51:28.967Z,9.27
2018-03-26T05:53:57.293Z,9.27
2018-03-26T05:56:25.749Z,9.21
2018-03-26T05:58:54.058Z,9.21
2018-03-26T06:01:26.888Z,9.14
2018-03-26T06:03:55.746Z,9.14
2018-03-26T06:06:24.090Z,9.17
2018-03-26T06:08:52.417Z,9.19
2018-03-26T06:11:20.774Z,9.07
2018-03-26T06:13:49.123Z,9.09
2018-03-26T06:16:17.450Z,9.10
2018-03-26T06:18:46.138Z,9.15
2018-03-26T06:21:14.486Z,9.12
2018-03-26T06:23:42.814Z,9.13
2018-03-26T06:26:12.057Z,9.12
2018-03-26T06:28:40.390Z,9.13
2018-03-26T06:31:08.737Z,9.11
2018-03-26T06:33:37.074Z,9.14
2018-03-26T06:39:33.925Z,9.23
2018-03-26T06:42:02.338Z,9.21
2018-03-26T06:44:30.661Z,9.24
2018-03-26T06:46:59.015Z,9.26
2018-03-26T06:49:27.346Z,9.28
2018-03-26T06:51:55.688Z,9.37
2018-03-26T06:54:24.022Z,9.38
2018-03-26T06:56:52.374Z,9.45
2018-03-26T06:59:20.697Z,9.33
2018-03-26T07:01:49.049Z,9.21
2018-03-26T07:04:17.375Z,9.11
2018-03-26T07:06:46.400Z,8.89
2018-03-26T07:09:14.690Z,8.72
2018-03-26T07:11:43.043Z,8.60
2018-03-26T07:14:11.376Z,8.55
2018-03-26T07:16:39.738Z,8.66
2018-03-26T07:19:08.061Z,8.74
2018-03-26T07:21:36.432Z,8.86
2018-03-26T07:24:04.750Z,8.90
2018-03-26T07:26:34.102Z,9.02
2018-03-26T07:29:02.435Z,8.96
2018-03-26T07:31:30.790Z,9.02
2018-03-26T07:33:59.190Z,9.01
2018-03-26T07:36:27.534Z,8.83
2018-03-26T07:38:55.910Z,8.70
2018-03-26T07:41:24.622Z,8.67
2018-03-26T07:43:53.010Z,8.71
2018-03-26T07:46:22.626Z,8.75
2018-03-26T07:48:50.979Z,8.64
2018-03-26T07:51:19.401Z,8.69
2018-03-26T07:53:47.754Z,8.60
2018-03-26T07:56:16.114Z,8.63
2018-03-26T07:58:44.443Z,8.49
2018-03-26T08:01:12.789Z,8.43
2018-03-26T08:03:41.122Z,8.40
2018-03-26T08:06:09.563Z,8.23
2018-03-26T08:08:37.901Z,8.08
2018-03-26T08:11:06.376Z,7.97
2018-03-26T08:13:34.694Z,7.99
2018-03-26T08:16:03.048Z,7.97
2018-03-26T08:18:31.383Z,8.11
2018-03-26T08:20:59.730Z,8.29
2018-03-26T08:23:28.070Z,8.29
2018-03-26T08:25:56.898Z,8.21
2018-03-26T08:28:25.227Z,8.17
2018-03-26T08:30:53.578Z,8.22
2018-03-26T08:33:21.917Z,8.28
2018-03-26T08:35:50.290Z,8.31
2018-03-26T08:38:18.626Z,8.56
2018-03-26T08:40:46.949Z,8.90
2018-03-26T08:43:15.290Z,8.84
2018-03-26T08:45:43.611Z,8.71
2018-03-26T08:48:11.966Z,8.54
2018-03-26T08:50:40.287Z,8.47
2018-03-26T08:53:08.627Z,8.52
2018-03-26T08:55:37.174Z,8.60
2018-03-26T08:58:05.506Z,8.68
2018-03-26T09:00:33.833Z,8.66
2018-03-26T09:03:02.178Z,8.32
2018-03-26T09:05:30.502Z,8.29
2018-03-26T09:07:58.838Z,8.28
2018-03-26T09:10:27.168Z,8.32
2018-03-26T09:12:55.506Z,8.45
2018-03-26T09:15:23.835Z,8.49
2018-03-26T09:17:52.180Z,8.37
2018-03-26T09:20:20.509Z,8.21
2018-03-26T09:22:48.849Z,8.28
2018-03-26T09:25:17.174Z,8.20
2018-03-26T09:27:45.543Z,8.37
2018-03-26T09:30:13.866Z,8.53
2018-03-26T09:32:42.206Z,8.68
2018-03-26T09:35:10.535Z,8.65
2018-03-26T09:37:38.884Z,8.65
2018-03-26T09:40:07.205Z,8.66
2018-03-26T09:42:35.550Z,8.56
2018-03-26T09:45:03.863Z,8.65
2018-03-26T09:47:32.198Z,8.77
2018-03-26T09:50:00.522Z,8.89
2018-03-26T09:52:28.867Z,9.07
2018-03-26T09:54:57.194Z,9.15
2018-03-26T09:57:25.542Z,9.24
2018-03-26T09:59:53.865Z,9.23
2018-03-26T10:02:22.210Z,9.16
2018-03-26T10:04:50.539Z,9.11
2018-03-26T10:07:18.886Z,9.09
2018-03-26T10:09:47.214Z,9.08
2018-03-26T10:12:15.554Z,9.08
2018-03-26T10:14:43.874Z,8.98
2018-03-26T10:17:12.213Z,9.05
2018-03-26T10:19:40.559Z,8.88
2018-03-26T10:22:08.878Z,8.88
2018-03-26T10:24:37.196Z,8.89
2018-03-26T10:27:05.534Z,8.91
2018-03-26T10:29:33.846Z,8.97
2018-03-26T10:32:02.190Z,9.02
2018-03-26T10:34:30.506Z,9.47
2018-03-26T10:36:58.846Z,9.31
2018-03-26T10:39:27.281Z,9.33
2018-03-26T10:41:55.610Z,9.34
2018-03-26T10:44:24.115Z,9.11
2018-03-26T10:46:52.451Z,9.06
2018-03-26T10:49:20.798Z,8.95
2018-03-26T10:51:49.138Z,8.90
2018-03-26T10:54:17.486Z,8.86
2018-03-26T10:56:46.014Z,8.89
2018-03-26T10:59:14.397Z,9.18
2018-03-26T11:01:42.718Z,9.16
2018-03-26T11:04:11.067Z,8.87
2018-03-26T11:06:39.387Z,8.85
2018-03-26T11:09:07.730Z,8.95
2018-03-26T11:11:36.054Z,9.07
2018-03-26T11:14:04.403Z,8.96
2018-03-26T11:16:32.732Z,8.78
2018-03-26T11:19:01.268Z,8.74
2018-03-26T11:21:29.598Z,8.82
2018-03-26T11:23:57.951Z,9.09
2018-03-26T11:26:26.275Z,9.10
2018-03-26T11:28:54.623Z,9.05
2018-03-26T11:31:23.019Z,9.11
2018-03-26T11:33:51.545Z,9.14
2018-03-26T11:36:19.904Z,9.19
2018-03-26T11:38:48.219Z,9.16
2018-03-26T11:41:16.549Z,9.04
2018-03-26T11:43:44.898Z,9.07
2018-03-26T11:46:14.235Z,8.84
2018-03-26T11:48:42.719Z,8.71
2018-03-26T11:51:11.150Z,8.64
2018-03-26T11:53:39.672Z,8.76
2018-03-26T11:56:08.118Z,8.97
2018-03-26T11:58:37.601Z,8.78
2018-03-26T12:01:05.950Z,8.61
2018-03-26T12:03:34.302Z,8.63
2018-03-26T12:06:02.690Z,8.54
2018-03-26T12:08:31.031Z,8.62
2018-03-26T12:10:59.358Z,8.70
2018-03-26T12:13:27.726Z,8.73
2018-03-26T12:15:56.071Z,8.67
2018-03-26T12:18:24.886Z,8.80
2018-03-26T12:21:02.669Z,8.96
2018-03-26T12:23:42.851Z,9.15
2018-03-26T12:26:12.174Z,9.03
2018-03-26T12:28:52.205Z,8.84
2018-03-26T12:31:20.554Z,8.65
2018-03-26T12:34:00.706Z,8.77
2018-03-26T12:36:30.152Z,8.74
2018-03-26T12:38:58.642Z,8.88
2018-03-26T12:41:27.007Z,8.87
2018-03-26T12:43:55.367Z,8.83
2018-03-26T12:46:36.550Z,8.77
2018-03-26T12:49:04.910Z,8.51
2018-03-26T12:51:45.213Z,8.43
2018-03-26T12:54:13.566Z,8.37
2018-03-26T12:56:41.893Z,8.55
2018-03-26T12:59:10.236Z,8.58
2018-03-26T13:01:50.278Z,8.52
2018-03-26T13:04:18.622Z,8.35
2018-03-26T13:06:47.036Z,8.52
2018-03-26T13:09:15.403Z,8.74
2018-03-26T13:11:43.722Z,8.80
2018-03-26T13:14:12.070Z,8.75
2018-03-26T13:16:40.398Z,8.80
2018-03-26T13:19:08.750Z,8.53
2018-03-26T13:21:37.079Z,8.60
2018-03-26T13:24:05.426Z,8.74
2018-03-26T13:26:34.769Z,8.86
2018-03-26T13:29:03.215Z,8.91
2018-03-26T13:31:31.592Z,8.88
2018-03-26T13:34:00.271Z,8.84
2018-03-26T13:36:28.587Z,8.90
2018-03-26T13:38:56.955Z,8.78
2018-03-26T13:41:25.278Z,8.62
2018-03-26T13:43:53.638Z,8.52
2018-03-26T13:46:21.961Z,8.58
2018-03-26T13:48:50.382Z,8.74
2018-03-26T13:51:18.733Z,8.82
2018-03-26T13:53:48.087Z,8.92
2018-03-26T13:56:16.432Z,9.03
2018-03-26T13:58:44.761Z,9.07
2018-03-26T14:01:13.103Z,9.02
2018-03-26T14:03:41.426Z,9.03
2018-03-26T14:06:10.011Z,9.01
2018-03-26T14:08:50.114Z,8.97
2018-03-26T14:11:30.106Z,8.94
2018-03-26T14:14:10.095Z,8.85
2018-03-26T14:16:51.325Z,8.83
2018-03-26T14:19:20.942Z,8.88
2018-03-26T14:21:49.320Z,8.64
2018-03-26T14:24:18.109Z,8.33
2018-03-26T14:26:47.830Z,8.28
2018-03-26T14:29:16.334Z,8.11
2018-03-26T14:31:44.745Z,8.08
2018-03-26T14:34:13.779Z,8.23
2018-03-26T14:36:42.104Z,8.73
2018-03-26T14:39:10.497Z,9.52
2018-03-26T14:41:39.085Z,9.08
2018-03-26T14:44:07.552Z,8.86
2018-03-26T14:46:36.770Z,8.50
2018-03-26T14:49:05.160Z,8.37
2018-03-26T14:51:33.662Z,8.28
2018-03-26T14:54:02.180Z,8.49
2018-03-26T14:56:31.499Z,8.43
2018-03-26T14:58:59.854Z,8.37
2018-03-26T15:01:28.268Z,8.25
2018-03-26T15:04:01.004Z,8.10
2018-03-26T15:06:30.302Z,8.00
2018-03-26T15:08:58.736Z,7.94
2018-03-26T15:11:27.662Z,7.87
2018-03-26T15:13:56.006Z,7.86
2018-03-26T15:16:24.409Z,7.95
2018-03-26T15:18:52.878Z,8.12
2018-03-26T15:21:21.279Z,8.18
2018-03-26T15:23:49.798Z,7.95
2018-03-26T15:26:19.258Z,7.94
2018-03-26T15:28:47.705Z,7.90
2018-03-26T15:31:16.096Z,7.88
2018-03-26T15:33:44.519Z,7.82
2018-03-26T15:36:12.875Z,7.77
2018-03-26T15:41:21.863Z,7.75
2018-03-26T15:43:50.187Z,7.63
2018-03-26T15:46:18.542Z,7.58
2018-03-26T15:48:46.890Z,7.55
2018-03-26T15:51:15.278Z,7.67
2018-03-26T15:53:43.590Z,7.62
2018-03-26T15:56:12.980Z,7.65
2018-03-26T15:58:46.174Z,7.68
2018-03-26T16:01:19.670Z,7.71
2018-03-26T16:03:48.062Z,7.68
2018-03-26T16:06:16.690Z,7.80
2018-03-26T16:08:45.039Z,7.73
2018-03-26T16:11:13.485Z,7.76
2018-03-26T16:13:42.081Z,7.77
2018-03-26T16:16:11.166Z,7.79
2018-03-26T16:18:39.499Z,7.85
2018-03-26T16:21:07.838Z,7.91
2018-03-26T16:23:36.158Z,7.83
2018-03-26T16:26:04.503Z,7.86
2018-03-26T16:28:32.854Z,7.83
2018-03-26T16:31:01.194Z,7.72
2018-03-26T16:33:29.613Z,7.72
2018-03-26T16:35:57.971Z,7.75
2018-03-26T16:38:26.304Z,7.63
2018-03-26T16:40:54.684Z,8.84
2018-03-26T16:43:23.042Z,8.11
2018-03-26T16:45:51.394Z,7.97
2018-03-26T16:48:19.798Z,7.94
2018-03-26T16:50:48.153Z,7.94
2018-03-26T16:53:16.952Z,8.02
2018-03-26T16:55:45.286Z,8.05
2018-03-26T16:58:13.626Z,8.09
2018-03-26T17:00:41.976Z,8.09
2018-03-26T17:03:10.970Z,8.08
2018-03-26T17:05:39.316Z,8.07
2018-03-26T17:08:07.678Z,8.14
2018-03-26T17:10:36.010Z,8.09
2018-03-26T17:13:04.379Z,8.08
2018-03-26T17:15:32.874Z,8.16
2018-03-26T17:18:01.246Z,8.22
2018-03-26T17:20:29.618Z,8.25
2018-03-26T17:22:57.970Z,8.24
2018-03-26T17:25:27.217Z,8.19
2018-03-26T17:27:55.621Z,9.40
2018-03-26T17:30:23.978Z,10.30
2018-03-26T17:32:52.410Z,9.63
2018-03-26T17:35:21.646Z,9.14
2018-03-26T17:37:50.105Z,8.93
2018-03-26T17:40:18.461Z,8.79
2018-03-26T17:42:46.903Z,8.69
2018-03-26T17:45:15.362Z,8.56
2018-03-26T17:47:43.761Z,8.53
2018-03-26T17:50:12.166Z,8.50
2018-03-26T17:52:40.502Z,8.44
2018-03-26T17:55:08.826Z,8.38
2018-03-26T17:57:37.490Z,8.39
2018-03-26T18:00:05.996Z,8.31
2018-03-26T18:02:34.423Z,8.29
2018-03-26T18:05:02.774Z,8.11
2018-03-26T18:07:32.125Z,8.01
2018-03-26T18:10:00.623Z,7.85
2018-03-26T18:12:28.949Z,7.83
2018-03-26T18:14:57.309Z,7.86
2018-03-26T18:17:25.672Z,7.91
2018-03-26T18:19:54.110Z,7.89
2018-03-26T18:22:22.496Z,7.89
2018-03-26T18:24:50.851Z,7.84
2018-03-26T18:27:20.186Z,7.77
2018-03-26T18:29:48.541Z,7.76
2018-03-26T18:32:17.039Z,7.56
2018-03-26T18:34:45.517Z,7.48
2018-03-26T18:37:14.819Z,7.52
2018-03-26T18:39:43.141Z,7.49
2018-03-26T18:42:11.596Z,7.42
2018-03-26T18:44:39.919Z,7.37
2018-03-26T18:47:08.343Z,7.24
2018-03-26T18:49:36.711Z,7.22
2018-03-26T18:52:05.054Z,7.11
2018-03-26T18:54:33.451Z,6.97
2018-03-26T18:57:01.898Z,6.86
2018-03-26T18:59:30.272Z,6.80
2018-03-26T19:01:58.667Z,6.85
2018-03-26T19:04:27.019Z,6.89
2018-03-26T19:06:56.460Z,6.91
2018-03-26T19:09:24.819Z,6.94
2018-03-26T19:11:53.176Z,6.82
2018-03-26T19:14:21.541Z,6.60
2018-03-26T19:16:49.895Z,6.63
2018-03-26T19:19:18.260Z,6.72
2018-03-26T19:21:46.574Z,6.71
2018-03-26T19:24:15.188Z,6.73
2018-03-26T19:26:43.683Z,6.72
2018-03-26T19:29:12.208Z,6.73
2018-03-26T19:31:45.582Z,6.70
2018-03-26T19:34:14.074Z,6.65
2018-03-26T19:36:43.394Z,6.63
2018-03-26T19:39:11.789Z,6.60
2018-03-26T19:41:40.215Z,6.62
2018-03-26T19:44:09.133Z,6.60
2018-03-26T19:46:38.598Z,6.59
2018-03-26T19:49:07.064Z,6.55
2018-03-26T19:51:36.290Z,6.59
2018-03-26T19:54:04.877Z,6.63
2018-03-26T19:56:33.210Z,6.80
2018-03-26T19:59:01.557Z,6.67
2018-03-26T20:01:30.014Z,6.48
2018-03-26T20:03:58.409Z,6.43
2018-03-26T20:06:26.826Z,6.39
2018-03-26T20:08:55.226Z,6.37
2018-03-26T20:11:23.650Z,6.24
2018-03-26T20:13:52.029Z,6.09
2018-03-26T20:16:20.561Z,6.06
2018-03-26T20:18:49.008Z,6.20
2018-03-26T20:21:17.551Z,6.19
2018-03-26T20:23:45.910Z,6.14
2018-03-26T20:26:14.261Z,6.06
2018-03-26T20:28:42.599Z,5.98
2018-03-26T20:31:10.922Z,5.82
2018-03-26T20:33:39.291Z,5.82
2018-03-26T20:36:07.628Z,5.86
2018-03-26T20:38:36.106Z,5.97
2018-03-26T20:41:04.425Z,6.00
2018-03-26T20:43:32.829Z,6.00
2018-03-26T20:46:01.158Z,5.98
2018-03-26T20:48:29.510Z,6.02
2018-03-26T20:50:57.838Z,6.07
2018-03-26T20:53:26.182Z,6.19
2018-03-26T20:55:54.523Z,6.30
2018-03-26T20:58:22.865Z,6.33
2018-03-26T21:00:51.190Z,6.32
2018-03-26T21:03:19.550Z,6.32
2018-03-26T21:05:47.869Z,6.31
2018-03-26T21:08:16.222Z,6.31
2018-03-26T21:10:44.549Z,6.34
2018-03-26T21:13:12.905Z,6.18
2018-03-26T21:15:41.234Z,6.07
2018-03-26T21:18:09.576Z,6.11
2018-03-26T21:20:37.909Z,6.09
2018-03-26T21:23:06.270Z,6.10
2018-03-26T21:25:34.595Z,6.28
2018-03-26T21:28:02.929Z,6.32
2018-03-26T21:30:31.270Z,6.28
2018-03-26T21:32:59.590Z,6.25
2018-03-26T21:35:28.331Z,6.25
2018-03-26T21:37:56.969Z,6.31
2018-03-26T21:40:25.317Z,6.30
2018-03-26T21:42:53.649Z,6.34
2018-03-26T21:45:22.008Z,6.33
2018-03-26T21:47:50.336Z,6.30
2018-03-26T21:50:18.684Z,7.22
2018-03-26T21:52:47.016Z,6.70
2018-03-26T21:55:15.365Z,6.47
2018-03-26T21:57:43.699Z,6.36
2018-03-26T22:00:18.002Z,6.24
2018-03-26T22:02:46.337Z,6.07
2018-03-26T22:05:14.717Z,6.02
2018-03-26T22:07:43.047Z,6.10
2018-03-26T22:10:11.404Z,6.12
2018-03-26T22:12:39.727Z,6.01
2018-03-26T22:15:08.092Z,5.84
2018-03-26T22:17:37.464Z,5.76
2018-03-26T22:20:05.872Z,5.82
2018-03-26T22:22:34.156Z,5.78
2018-03-26T22:25:02.518Z,5.78
2018-03-26T22:27:30.929Z,5.64
2018-03-26T22:29:59.275Z,5.56
2018-03-26T22:32:27.598Z,5.69
2018-03-26T22:34:55.987Z,5.83
2018-03-26T22:37:28.053Z,5.95
2018-03-26T22:39:57.075Z,5.73
2018-03-26T22:42:25.406Z,5.52
2018-03-26T22:44:53.838Z,5.37
2018-03-26T22:47:22.235Z,5.30
2018-03-26T22:49:50.591Z,5.17
2018-03-26T22:52:18.910Z,5.05
2018-03-26T22:54:47.259Z,5.14
2018-03-26T22:57:15.586Z,5.15
2018-03-26T22:59:43.936Z,5.00
2018-03-26T23:02:12.266Z,5.00
2018-03-26T23:04:40.616Z,5.21
2018-03-26T23:07:08.945Z,5.37
2018-03-26T23:09:37.291Z,5.45
2018-03-26T23:12:05.627Z,5.54
2018-03-26T23:14:33.977Z,6.25
2018-03-26T23:17:02.318Z,6.10
2018-03-26T23:19:31.354Z,6.00
2018-03-26T23:21:59.679Z,5.94
2018-03-26T23:24:28.031Z,5.88
2018-03-26T23:26:56.358Z,5.78
2018-03-26T23:29:24.711Z,5.67
2018-03-26T23:31:53.038Z,5.60
2018-03-26T23:34:21.385Z,5.63
2018-03-26T23:36:49.718Z,5.58
2018-03-26T23:39:18.046Z,5.58
2018-03-26T23:41:46.391Z,5.67
2018-03-26T23:44:14.714Z,5.70
2018-03-26T23:46:43.054Z,5.68
2018-03-26T23:49:11.365Z,5.63
2018-03-26T23:51:39.705Z,5.61
2018-03-26T23:54:08.030Z,5.63
2018-03-26T23:56:36.370Z,5.61
2018-03-26T23:59:04.700Z,5.59
